Time;durP1;ratioP1;P1;durP2;ratioP2;P2;SDS_P1;SDS_P2;PMS_P1;PMS_P2;Temp;Humidity;BMP_temperature;BMP_pressure;BME280_temperature;BME280_humidity;BME280_pressure;Samples;Min_cycle;Max_cycle;Signal;HPM_P1;HPM_P2
2021/12/02 00:01:13;;;;;;;8.60;1.27;;;3.80;99.90;;;;;;5055110;28;20088;-75
2021/12/02 00:03:39;;;;;;;4.55;0.75;;;3.70;99.90;;;;;;5038162;28;20041;-73
2021/12/02 00:06:12;;;;;;;7.13;1.38;;;3.70;99.90;;;;;;5054781;28;20041;-76
2021/12/02 00:08:39;;;;;;;8.88;1.38;;;3.70;99.90;;;;;;5054674;28;20055;-75
2021/12/02 00:11:05;;;;;;;6.55;1.10;;;3.70;99.90;;;;;;5054314;28;20071;-74
2021/12/02 00:13:41;;;;;;;8.15;1.20;;;3.60;99.90;;;;;;5054673;28;20033;-74
2021/12/02 00:16:20;;;;;;;8.95;1.25;;;3.60;99.90;;;;;;5037939;28;20036;-75
2021/12/02 00:21:23;;;;;;;8.73;1.35;;;3.60;99.90;;;;;;5054173;28;20052;-74
2021/12/02 00:24:09;;;;;;;7.43;1.10;;;3.60;99.90;;;;;;5054160;28;20040;-74
2021/12/02 00:26:38;;;;;;;8.27;1.25;;;3.70;99.90;;;;;;5054522;28;20051;-74
2021/12/02 00:29:07;;;;;;;6.77;1.30;;;3.60;99.90;;;;;;5054468;28;20037;-74
2021/12/02 00:31:36;;;;;;;9.80;1.30;;;3.60;99.90;;;;;;5053883;28;20041;-74
2021/12/02 00:34:10;;;;;;;5.85;0.98;;;3.60;99.90;;;;;;5052968;28;20036;-74
2021/12/02 00:36:38;;;;;;;6.50;1.20;;;3.60;99.90;;;;;;5038071;28;20036;-73
2021/12/02 00:39:21;;;;;;;7.07;1.05;;;3.60;99.90;;;;;;5054401;28;20053;-73
2021/12/02 00:41:48;;;;;;;6.18;1.00;;;3.70;99.90;;;;;;5054102;28;20488;-73
2021/12/02 00:44:14;;;;;;;7.57;1.25;;;3.70;99.90;;;;;;5053908;28;20479;-75
2021/12/02 00:46:40;;;;;;;8.27;1.10;;;3.70;99.90;;;;;;5053101;28;20037;-76
2021/12/02 00:49:11;;;;;;;8.55;1.10;;;3.70;99.90;;;;;;5054198;28;20098;-75
2021/12/02 00:51:39;;;;;;;5.07;1.00;;;3.70;99.90;;;;;;5054372;28;20041;-73
2021/12/02 00:54:08;;;;;;;7.03;1.30;;;3.70;99.90;;;;;;5053615;28;20041;-74
2021/12/02 00:56:34;;;;;;;16.10;1.33;;;3.70;99.90;;;;;;5053805;28;20044;-74
2021/12/02 00:59:02;;;;;;;6.25;1.20;;;3.70;99.90;;;;;;5053428;28;20083;-73
2021/12/02 01:01:34;;;;;;;8.18;1.13;;;3.60;99.90;;;;;;5037428;28;20063;-73
2021/12/02 01:04:09;;;;;;;10.38;1.30;;;3.60;99.90;;;;;;5053626;28;20103;-74
2021/12/02 01:06:35;;;;;;;6.78;1.10;;;3.60;99.90;;;;;;5053506;28;20528;-74
2021/12/02 01:09:04;;;;;;;6.07;1.00;;;3.60;99.90;;;;;;5036967;28;20037;-74
2021/12/02 01:11:29;;;;;;;6.55;0.90;;;3.60;99.90;;;;;;5052884;28;20041;-74
2021/12/02 01:13:55;;;;;;;6.68;0.90;;;3.60;99.90;;;;;;5052848;28;20063;-73
2021/12/02 01:16:22;;;;;;;9.13;1.00;;;3.50;99.90;;;;;;5053351;28;20092;-74
2021/12/02 01:18:48;;;;;;;8.68;1.35;;;3.50;99.90;;;;;;5053310;28;20498;-74
2021/12/02 01:21:16;;;;;;;7.47;1.45;;;3.50;99.90;;;;;;5036560;28;20498;-75
2021/12/02 01:23:43;;;;;;;6.82;1.10;;;3.50;99.90;;;;;;5053160;28;20040;-73
2021/12/02 01:26:10;;;;;;;9.20;1.05;;;3.40;99.90;;;;;;5052864;28;20487;-74
2021/12/02 01:28:37;;;;;;;5.93;1.00;;;3.40;99.90;;;;;;5052904;28;20059;-74
2021/12/02 01:31:04;;;;;;;6.05;1.20;;;3.40;99.90;;;;;;5036414;28;20076;-73
2021/12/02 01:33:29;;;;;;;11.25;1.05;;;3.30;99.90;;;;;;5052799;28;20463;-73
2021/12/02 01:36:01;;;;;;;10.60;1.52;;;3.30;99.90;;;;;;5053023;28;20048;-73
2021/12/02 01:38:29;;;;;;;5.35;0.80;;;3.30;99.90;;;;;;5036340;28;20095;-74
2021/12/02 01:40:59;;;;;;;6.00;0.88;;;3.30;99.90;;;;;;5052660;28;20040;-74
2021/12/02 01:43:45;;;;;;;;;;;3.30;99.90;;;;;;5053514;28;20049;-74
2021/12/02 01:46:12;;;;;;;5.80;1.08;;;3.30;99.90;;;;;;5052643;28;20313;-73
2021/12/02 01:48:41;;;;;;;3.28;0.80;;;3.30;99.90;;;;;;5052971;28;20041;-75
2021/12/02 01:51:10;;;;;;;4.05;0.73;;;3.30;99.90;;;;;;5052612;28;20049;-74
2021/12/02 01:53:39;;;;;;;6.90;1.08;;;3.30;99.90;;;;;;5036284;28;20037;-75
2021/12/02 01:56:13;;;;;;;3.90;0.82;;;3.30;99.90;;;;;;5052702;28;20514;-75
2021/12/02 01:58:46;;;;;;;10.27;1.00;;;3.30;99.90;;;;;;5052527;28;20526;-75
2021/12/02 02:01:26;;;;;;;5.30;0.80;;;3.30;99.90;;;;;;5051813;28;20041;-75
2021/12/02 02:03:53;;;;;;;5.57;0.95;;;3.40;99.90;;;;;;5052027;28;20052;-74
2021/12/02 02:06:58;;;;;;;6.28;1.33;;;3.40;99.90;;;;;;5053231;28;20170;-75
2021/12/02 02:09:26;;;;;;;6.30;1.25;;;3.40;99.90;;;;;;5052741;28;20091;-76
2021/12/02 02:11:53;;;;;;;2.78;0.80;;;3.40;99.90;;;;;;5052217;28;20045;-74
2021/12/02 02:14:20;;;;;;;8.80;1.40;;;3.50;99.90;;;;;;5052181;28;20084;-74
2021/12/02 02:16:47;;;;;;;7.60;1.00;;;3.50;99.90;;;;;;5052540;28;20041;-75
2021/12/02 02:19:13;;;;;;;7.25;1.60;;;3.50;99.90;;;;;;5052958;28;20128;-74
2021/12/02 02:21:40;;;;;;;7.65;1.38;;;3.60;99.90;;;;;;5035815;28;20124;-74
2021/12/02 02:24:11;;;;;;;5.68;1.10;;;3.60;99.90;;;;;;5051934;28;20544;-73
2021/12/02 02:26:37;;;;;;;6.93;0.88;;;3.50;99.90;;;;;;5052014;28;20495;-74
2021/12/02 02:29:05;;;;;;;2.90;0.63;;;3.50;99.90;;;;;;5036154;28;20045;-73
2021/12/02 02:31:33;;;;;;;7.03;0.95;;;3.40;99.90;;;;;;5035144;28;20435;-73
2021/12/02 02:33:59;;;;;;;8.90;1.10;;;3.40;99.90;;;;;;5052051;28;20174;-74
2021/12/02 02:36:30;;;;;;;3.60;0.47;;;3.30;99.90;;;;;;5052284;28;20044;-75
2021/12/02 02:38:58;;;;;;;2.60;0.70;;;3.30;99.90;;;;;;5052200;28;20049;-75
2021/12/02 02:41:30;;;;;;;3.85;0.35;;;3.20;99.90;;;;;;5055430;28;20037;-73
2021/12/02 02:43:59;;;;;;;3.60;0.47;;;3.10;99.90;;;;;;5056932;28;20040;-73
2021/12/02 02:46:33;;;;;;;2.50;0.80;;;3.00;99.90;;;;;;5056179;28;20037;-73
2021/12/02 02:49:00;;;;;;;2.90;0.50;;;2.90;99.90;;;;;;5038733;28;20052;-74
2021/12/02 02:51:30;;;;;;;4.72;0.60;;;2.80;99.90;;;;;;5056331;28;20041;-74
2021/12/02 02:53:57;;;;;;;;;;;2.80;99.90;;;;;;5039297;28;20086;-74
2021/12/02 02:56:27;;;;;;;4.13;0.50;;;2.70;99.90;;;;;;5056143;28;20317;-73
2021/12/02 03:12:05;;;;;;;1.40;0.40;;;2.50;99.90;;;;;;5055651;28;20103;-75
2021/12/02 03:14:48;;;;;;;1.85;0.45;;;2.50;99.90;;;;;;5055268;28;20390;-74
2021/12/02 03:17:14;;;;;;;3.35;0.40;;;2.50;99.90;;;;;;5055544;28;20057;-74
2021/12/02 03:19:44;;;;;;;3.08;0.50;;;2.40;99.90;;;;;;5055562;28;20052;-73
2021/12/02 03:22:15;;;;;;;2.28;0.40;;;2.40;99.90;;;;;;5055306;28;20040;-73
2021/12/02 03:24:40;;;;;;;1.58;0.50;;;2.40;99.90;;;;;;5055328;28;20037;-73
2021/12/02 03:27:06;;;;;;;4.43;0.60;;;2.30;99.90;;;;;;5055322;28;20082;-76
2021/12/02 03:29:33;;;;;;;3.20;0.43;;;2.30;99.90;;;;;;5038837;28;20037;-75
2021/12/02 03:31:58;;;;;;;2.75;0.50;;;2.20;99.90;;;;;;5055363;28;20049;-75
2021/12/02 03:34:24;;;;;;;3.55;0.68;;;2.20;99.90;;;;;;5055333;28;20051;-75
2021/12/02 03:36:50;;;;;;;2.38;0.50;;;2.20;99.90;;;;;;5055200;28;20068;-74
2021/12/02 03:39:16;;;;;;;2.88;0.60;;;2.20;99.90;;;;;;5055215;28;20128;-74
2021/12/02 03:41:42;;;;;;;3.17;0.75;;;2.10;99.90;;;;;;5054415;28;20128;-74
2021/12/02 03:44:08;;;;;;;3.58;0.60;;;2.10;99.90;;;;;;5055211;28;20056;-75
2021/12/02 03:46:35;;;;;;;1.52;0.57;;;2.10;99.90;;;;;;5055075;28;20546;-73
2021/12/02 03:49:02;;;;;;;2.08;0.73;;;2.00;99.90;;;;;;5054948;28;20379;-74
2021/12/02 03:51:28;;;;;;;4.55;0.68;;;2.00;99.90;;;;;;5037814;28;20077;-73
2021/12/02 03:53:54;;;;;;;3.35;0.50;;;2.00;99.90;;;;;;5054737;28;20126;-74
2021/12/02 03:56:21;;;;;;;2.15;0.47;;;1.90;99.90;;;;;;5054702;28;20045;-74
2021/12/02 03:58:48;;;;;;;4.43;0.70;;;1.90;99.90;;;;;;5055260;28;20510;-75
2021/12/02 04:01:15;;;;;;;3.38;0.80;;;1.80;99.90;;;;;;5054412;28;20048;-76
2021/12/02 04:03:41;;;;;;;3.38;0.75;;;1.70;99.90;;;;;;5054893;28;20127;-73
2021/12/02 04:06:08;;;;;;;3.90;0.60;;;1.70;99.90;;;;;;5055191;28;20120;-76
2021/12/02 04:08:42;;;;;;;4.50;0.60;;;1.70;99.90;;;;;;5054683;28;20045;-74
2021/12/02 04:11:29;;;;;;;3.28;0.57;;;1.70;99.90;;;;;;5054335;28;20102;-75
2021/12/02 04:16:40;;;;;;;3.58;0.82;;;1.70;99.90;;;;;;5034490;28;20048;-74
2021/12/02 04:19:09;;;;;;;3.72;0.82;;;1.70;99.90;;;;;;5051353;28;20088;-75
2021/12/02 04:21:35;;;;;;;3.85;0.60;;;1.70;99.90;;;;;;5051041;28;20085;-74
2021/12/02 04:24:01;;;;;;;2.92;0.93;;;1.70;99.90;;;;;;5051683;28;20045;-74
2021/12/02 04:26:27;;;;;;;3.03;0.80;;;1.80;99.90;;;;;;5034565;28;20132;-76
2021/12/02 04:28:53;;;;;;;10.40;0.98;;;1.80;99.90;;;;;;5051025;28;20052;-75
2021/12/02 04:31:19;;;;;;;4.45;0.70;;;1.90;99.90;;;;;;5050633;28;20060;-74
2021/12/02 04:33:45;;;;;;;5.30;0.70;;;2.00;99.90;;;;;;5050666;28;20044;-75
2021/12/02 04:36:11;;;;;;;4.07;0.90;;;2.00;99.90;;;;;;5050522;28;20114;-74
2021/12/02 04:38:37;;;;;;;1.23;0.60;;;2.10;99.90;;;;;;5051530;28;20045;-74
2021/12/02 04:41:03;;;;;;;7.68;0.95;;;2.10;99.90;;;;;;5051269;28;20660;-74
2021/12/02 04:43:28;;;;;;;1.40;0.45;;;2.10;99.90;;;;;;5050789;28;20088;-76
2021/12/02 04:45:54;;;;;;;6.10;1.05;;;2.10;99.90;;;;;;5064787;28;20037;-76
2021/12/02 04:48:20;;;;;;;3.55;0.60;;;2.20;99.90;;;;;;5037219;28;20413;-74
2021/12/02 04:50:46;;;;;;;5.80;1.02;;;2.20;99.90;;;;;;5036682;28;20387;-74
2021/12/02 04:53:12;;;;;;;5.78;0.98;;;2.10;99.90;;;;;;5037347;28;20041;-76
2021/12/02 04:55:38;;;;;;;2.33;0.85;;;2.10;99.90;;;;;;5054053;28;20120;-74
2021/12/02 04:58:04;;;;;;;4.30;0.68;;;2.20;99.90;;;;;;5054033;28;20048;-74
2021/12/02 05:00:30;;;;;;;5.10;0.77;;;2.10;99.90;;;;;;5053763;28;20033;-74
2021/12/02 05:02:56;;;;;;;3.88;0.82;;;2.10;99.90;;;;;;5052924;28;20041;-74
2021/12/02 05:05:23;;;;;;;2.70;0.90;;;2.10;99.90;;;;;;5053381;28;20086;-76
2021/12/02 05:07:52;;;;;;;3.63;0.50;;;2.10;99.90;;;;;;5053083;28;20040;-74
2021/12/02 05:10:18;;;;;;;4.78;0.88;;;2.10;99.90;;;;;;5052624;28;20479;-75
2021/12/02 05:12:44;;;;;;;3.00;1.08;;;2.10;99.90;;;;;;5052307;28;20055;-74
2021/12/02 05:15:09;;;;;;;5.15;1.00;;;2.10;99.90;;;;;;5053474;28;20144;-76
2021/12/02 05:17:35;;;;;;;3.65;0.65;;;2.10;99.90;;;;;;5053333;28;20044;-75
2021/12/02 05:20:01;;;;;;;3.67;1.00;;;2.00;99.90;;;;;;5054097;28;20048;-75
2021/12/02 05:22:27;;;;;;;2.50;0.98;;;2.10;99.90;;;;;;5053577;28;20098;-73
2021/12/02 05:24:53;;;;;;;3.35;0.80;;;2.10;99.90;;;;;;5053445;28;20080;-74
2021/12/02 05:27:18;;;;;;;3.50;0.90;;;2.10;99.90;;;;;;5053554;28;20041;-74
2021/12/02 05:29:44;;;;;;;4.30;0.77;;;2.00;99.90;;;;;;5052771;28;20379;-75
2021/12/02 05:32:10;;;;;;;3.90;1.15;;;2.00;99.90;;;;;;5052889;28;20045;-75
2021/12/02 05:34:35;;;;;;;3.80;0.75;;;2.00;99.90;;;;;;5052834;28;20174;-73
2021/12/02 05:37:01;;;;;;;3.53;0.85;;;2.00;99.90;;;;;;5053022;28;20135;-74
2021/12/02 05:39:27;;;;;;;3.80;1.30;;;2.00;99.90;;;;;;5052975;28;20459;-75
2021/12/02 05:41:55;;;;;;;5.85;3.78;;;2.00;99.90;;;;;;5053325;28;20367;-76
2021/12/02 05:44:22;;;;;;;5.72;2.30;;;2.00;99.90;;;;;;5053102;28;20050;-76
2021/12/02 05:46:47;;;;;;;6.40;1.75;;;2.00;99.90;;;;;;5052342;28;20120;-75
2021/12/02 05:49:13;;;;;;;3.67;1.35;;;2.00;99.90;;;;;;5052420;28;20155;-75
2021/12/02 05:51:41;;;;;;;3.05;1.00;;;2.00;99.90;;;;;;5053481;28;20036;-77
2021/12/02 05:54:08;;;;;;;1.85;0.80;;;1.90;99.90;;;;;;5052682;28;20045;-75
2021/12/02 05:56:33;;;;;;;2.80;0.77;;;2.00;99.90;;;;;;5052428;28;20489;-73
2021/12/02 05:58:59;;;;;;;4.82;2.10;;;2.00;99.90;;;;;;5052619;28;20495;-73
2021/12/02 06:01:25;;;;;;;3.45;1.10;;;2.00;99.90;;;;;;5052393;28;20114;-75
2021/12/02 06:03:51;;;;;;;3.40;1.38;;;2.00;99.90;;;;;;5052393;28;20544;-73
2021/12/02 06:06:17;;;;;;;3.80;1.65;;;2.00;99.90;;;;;;5052369;28;20053;-74
2021/12/02 06:08:43;;;;;;;3.80;0.93;;;2.00;99.90;;;;;;5036120;28;20048;-73
2021/12/02 06:11:09;;;;;;;2.65;1.02;;;2.00;99.90;;;;;;5052649;28;20090;-74
2021/12/02 06:13:35;;;;;;;1.92;0.80;;;2.00;99.90;;;;;;5051845;28;20041;-74
2021/12/02 06:16:00;;;;;;;5.22;1.92;;;2.00;99.90;;;;;;5052382;28;20041;-73
2021/12/02 06:18:26;;;;;;;2.65;1.65;;;2.00;99.90;;;;;;5052341;28;20062;-75
2021/12/02 06:20:54;;;;;;;3.35;1.20;;;2.00;99.90;;;;;;5053046;28;20121;-75
2021/12/02 06:23:21;;;;;;;2.65;0.93;;;2.00;99.90;;;;;;5051569;28;20060;-76
2021/12/02 06:25:48;;;;;;;2.22;0.60;;;2.00;99.90;;;;;;5052380;28;20079;-74
2021/12/02 06:28:15;;;;;;;3.58;0.70;;;2.00;99.90;;;;;;5052220;28;20597;-75
2021/12/02 06:30:41;;;;;;;3.78;0.68;;;1.90;99.90;;;;;;5051691;28;20099;-76
2021/12/02 06:33:07;;;;;;;1.90;0.70;;;1.90;99.90;;;;;;5052686;28;20403;-75
2021/12/02 06:35:33;;;;;;;5.47;0.85;;;1.90;99.90;;;;;;5051788;28;20471;-73
2021/12/02 06:37:59;;;;;;;5.07;1.20;;;1.90;99.90;;;;;;5052145;28;20480;-74
2021/12/02 06:40:25;;;;;;;3.65;0.90;;;2.00;99.90;;;;;;5035760;28;20047;-75
2021/12/02 06:42:51;;;;;;;2.25;0.80;;;1.90;99.90;;;;;;5052356;28;20041;-76
2021/12/02 06:45:16;;;;;;;4.32;1.15;;;2.00;99.90;;;;;;5051950;28;20047;-75
2021/12/02 06:47:42;;;;;;;2.25;0.80;;;2.00;99.90;;;;;;5051993;28;20355;-75
2021/12/02 06:50:13;;;;;;;4.28;1.20;;;2.00;99.90;;;;;;5051826;28;20037;-74
2021/12/02 06:52:39;;;;;;;5.03;1.20;;;2.00;99.90;;;;;;5035549;28;20037;-74
2021/12/02 06:55:05;;;;;;;3.88;1.42;;;2.00;99.90;;;;;;5052114;28;20044;-74
2021/12/02 06:57:31;;;;;;;2.13;1.00;;;2.10;99.90;;;;;;5051802;28;20075;-75
2021/12/02 07:00:02;;;;;;;2.63;1.10;;;2.00;99.90;;;;;;5051374;28;20072;-74
2021/12/02 07:02:29;;;;;;;5.50;1.20;;;2.10;99.90;;;;;;5051728;28;20060;-74
2021/12/02 07:04:57;;;;;;;4.65;1.50;;;2.00;99.90;;;;;;5051868;28;20433;-74
2021/12/02 07:07:23;;;;;;;3.92;1.60;;;2.10;99.90;;;;;;5051711;28;20487;-74
2021/12/02 07:09:49;;;;;;;3.80;2.67;;;2.10;99.90;;;;;;5052048;28;20098;-75
2021/12/02 07:12:17;;;;;;;3.30;2.00;;;2.10;99.90;;;;;;5051878;28;20131;-73
2021/12/02 07:14:46;;;;;;;5.15;3.53;;;2.20;99.90;;;;;;5051296;28;20475;-75
2021/12/02 07:17:12;;;;;;;7.93;3.93;;;2.20;99.90;;;;;;5052157;28;20049;-75
2021/12/02 07:19:40;;;;;;;3.28;1.58;;;2.20;99.90;;;;;;5051888;28;20349;-74
2021/12/02 07:22:05;;;;;;;5.60;0.80;;;2.20;99.90;;;;;;5051809;28;20439;-73
2021/12/02 07:24:31;;;;;;;1.80;0.90;;;2.20;99.90;;;;;;5051929;28;20518;-75
2021/12/02 07:26:57;;;;;;;3.80;1.65;;;2.20;99.90;;;;;;5053299;28;20041;-74
2021/12/02 07:29:23;;;;;;;5.10;1.30;;;2.20;99.90;;;;;;5055575;28;20475;-74
2021/12/02 07:31:50;;;;;;;4.28;0.88;;;2.20;99.90;;;;;;5054872;28;20118;-74
2021/12/02 07:34:17;;;;;;;3.42;0.85;;;2.20;99.90;;;;;;5055079;28;20475;-75
2021/12/02 07:36:44;;;;;;;2.25;0.73;;;2.20;99.90;;;;;;5038239;28;20124;-76
2021/12/02 07:39:10;;;;;;;8.00;0.90;;;2.30;99.90;;;;;;5038583;28;20075;-74
2021/12/02 07:41:40;;;;;;;3.63;0.77;;;2.30;99.90;;;;;;5055134;28;20475;-77
2021/12/02 07:44:06;;;;;;;3.15;0.95;;;2.30;99.90;;;;;;5055578;28;20049;-75
2021/12/02 07:46:32;;;;;;;4.82;1.30;;;2.30;99.90;;;;;;5055420;28;20044;-75
2021/12/02 07:48:59;;;;;;;3.75;1.20;;;2.30;99.90;;;;;;5055345;28;20081;-74
2021/12/02 07:51:30;;;;;;;3.67;1.20;;;2.40;99.90;;;;;;5054658;28;20068;-73
2021/12/02 07:53:58;;;;;;;6.18;1.60;;;2.30;99.90;;;;;;5054768;28;20106;-74
2021/12/02 07:56:24;;;;;;;3.53;1.75;;;2.30;99.90;;;;;;5054558;28;20049;-74
2021/12/02 07:58:50;;;;;;;3.63;2.03;;;2.30;99.90;;;;;;5054487;28;20439;-75
2021/12/02 08:01:17;;;;;;;4.18;2.03;;;2.30;99.90;;;;;;5054853;28;20128;-73
2021/12/02 08:03:47;;;;;;;4.28;2.65;;;2.30;99.90;;;;;;5054737;28;20540;-74
2021/12/02 08:06:14;;;;;;;4.05;2.28;;;2.30;99.90;;;;;;5054666;28;20041;-74
2021/12/02 08:08:41;;;;;;;4.28;2.13;;;2.30;99.90;;;;;;5054488;28;20398;-73
2021/12/02 08:11:08;;;;;;;3.85;2.13;;;2.30;99.90;;;;;;5054767;28;20044;-76
2021/12/02 08:13:35;;;;;;;4.68;3.10;;;2.30;99.90;;;;;;5054685;28;20040;-74
2021/12/02 08:16:02;;;;;;;6.53;2.08;;;2.30;99.90;;;;;;5054532;28;20040;-77
2021/12/02 08:18:28;;;;;;;4.20;2.25;;;2.30;99.90;;;;;;5054639;28;20048;-74
2021/12/02 08:20:54;;;;;;;2.78;2.15;;;2.30;99.90;;;;;;5054073;28;20036;-76
2021/12/02 08:23:21;;;;;;;6.60;2.20;;;2.30;99.90;;;;;;5054248;28;20090;-74
2021/12/02 08:25:46;;;;;;;5.60;2.10;;;2.30;99.90;;;;;;5054682;28;20119;-74
2021/12/02 08:28:12;;;;;;;3.97;1.83;;;2.30;99.90;;;;;;5037726;28;20183;-74
2021/12/02 08:30:38;;;;;;;4.38;1.90;;;2.30;99.90;;;;;;5054031;28;20049;-76
2021/12/02 08:33:06;;;;;;;4.07;2.08;;;2.30;99.90;;;;;;5054417;28;20041;-76
2021/12/02 08:35:34;;;;;;;3.25;1.77;;;2.30;99.90;;;;;;5054249;28;20049;-73
2021/12/02 08:38:05;;;;;;;2.70;1.70;;;2.40;99.90;;;;;;5053885;28;20087;-73
2021/12/02 08:40:35;;;;;;;3.35;1.98;;;2.40;99.90;;;;;;5053923;28;20391;-74
2021/12/02 08:43:09;;;;;;;5.30;2.33;;;2.50;99.90;;;;;;5054639;28;20052;-73
2021/12/02 08:45:37;;;;;;;8.15;2.22;;;2.50;99.90;;;;;;5037076;28;20041;-75
2021/12/02 08:48:05;;;;;;;4.30;2.30;;;2.50;99.90;;;;;;5052884;28;20052;-72
2021/12/02 08:50:31;;;;;;;5.60;2.85;;;2.60;99.90;;;;;;5037032;28;20052;-74
2021/12/02 08:52:58;;;;;;;3.53;2.40;;;2.60;99.90;;;;;;5037458;28;20043;-74
2021/12/02 08:55:25;;;;;;;5.68;2.40;;;2.70;99.90;;;;;;5054091;28;20036;-73
2021/12/02 08:57:52;;;;;;;5.70;2.42;;;2.80;99.90;;;;;;5053782;28;20546;-74
2021/12/02 09:00:21;;;;;;;3.35;1.98;;;2.80;99.90;;;;;;5053645;28;20383;-74
2021/12/02 09:02:47;;;;;;;2.53;1.80;;;2.90;99.90;;;;;;5053738;28;20060;-76
2021/12/02 09:05:14;;;;;;;6.80;1.90;;;2.90;99.90;;;;;;5053045;28;20391;-76
2021/12/02 09:07:40;;;;;;;4.32;1.70;;;2.90;99.90;;;;;;5053854;28;20072;-75
2021/12/02 09:10:08;;;;;;;1.88;1.30;;;2.90;99.90;;;;;;5054124;28;20076;-76
2021/12/02 09:12:33;;;;;;;5.20;1.67;;;2.90;99.90;;;;;;5053340;28;20037;-74
2021/12/02 09:14:59;;;;;;;3.30;1.50;;;3.00;99.90;;;;;;5052631;28;20040;-74
2021/12/02 09:17:25;;;;;;;2.50;1.45;;;3.00;99.90;;;;;;5053340;28;20037;-76
2021/12/02 09:19:51;;;;;;;2.83;1.50;;;3.00;99.90;;;;;;5053328;28;20494;-75
2021/12/02 09:22:17;;;;;;;3.95;1.50;;;2.90;99.90;;;;;;5053810;28;20083;-74
2021/12/02 09:24:43;;;;;;;2.25;1.30;;;3.00;99.90;;;;;;5053480;28;20036;-73
2021/12/02 09:27:09;;;;;;;5.43;1.38;;;2.90;99.90;;;;;;5053142;28;20128;-77
2021/12/02 09:29:34;;;;;;;2.38;1.30;;;2.90;99.90;;;;;;5053257;28;20040;-73
2021/12/02 09:32:01;;;;;;;3.50;1.40;;;2.90;99.90;;;;;;5052713;28;20082;-81
2021/12/02 09:34:26;;;;;;;3.47;1.20;;;2.90;99.90;;;;;;5035609;28;20405;-75
2021/12/02 09:36:54;;;;;;;6.35;1.55;;;2.90;99.90;;;;;;5052757;28;20495;-74
2021/12/02 09:39:20;;;;;;;1.70;1.33;;;2.90;99.90;;;;;;5053230;28;20136;-73
2021/12/02 09:41:46;;;;;;;4.55;1.20;;;2.90;99.90;;;;;;5052990;28;20075;-74
2021/12/02 09:44:13;;;;;;;2.33;1.30;;;3.00;99.90;;;;;;5052864;28;20051;-75
2021/12/02 09:46:40;;;;;;;2.85;1.27;;;3.00;99.90;;;;;;5053054;28;20032;-75
2021/12/02 09:49:08;;;;;;;2.70;1.15;;;3.10;99.90;;;;;;5052081;28;20080;-74
2021/12/02 09:54:45;;;;;;;3.47;1.10;;;3.20;99.90;;;;;;5041186;28;20454;-76
2021/12/02 09:57:14;;;;;;;4.05;1.00;;;3.30;99.90;;;;;;5052651;28;20063;-74
2021/12/02 10:02:12;;;;;;;2.80;1.20;;;3.40;99.90;;;;;;5052980;28;20135;-75
2021/12/02 10:07:20;;;;;;;3.15;1.40;;;3.50;99.90;;;;;;5052480;28;20041;-74
2021/12/02 10:10:04;;;;;;;5.38;1.15;;;3.60;99.90;;;;;;5052400;28;20067;-74
2021/12/02 10:12:33;;;;;;;3.53;1.10;;;3.70;99.90;;;;;;5052863;28;20037;-74
2021/12/02 10:15:06;;;;;;;2.05;1.15;;;3.70;99.90;;;;;;5052643;28;20103;-74
2021/12/02 10:17:38;;;;;;;2.67;1.00;;;3.80;99.90;;;;;;5052536;28;20041;-74
2021/12/02 10:23:33;;;;;;;4.25;1.02;;;3.80;99.90;;;;;;5052483;28;20505;-74
2021/12/02 10:26:04;;;;;;;2.30;1.10;;;4.00;99.90;;;;;;5052426;28;20062;-74
2021/12/02 10:28:35;;;;;;;2.00;0.82;;;4.10;99.90;;;;;;5052091;28;20049;-76
2021/12/02 10:31:04;;;;;;;3.58;1.00;;;4.10;99.90;;;;;;5068675;28;20476;-76
2021/12/02 10:33:46;;;;;;;2.43;0.87;;;4.20;99.90;;;;;;5052370;28;20216;-74
2021/12/02 10:36:40;;;;;;;2.97;1.00;;;4.20;99.90;;;;;;5037307;28;20112;-76
2021/12/02 10:39:17;;;;;;;3.38;1.00;;;4.10;99.90;;;;;;5051683;28;20041;-73
2021/12/02 10:41:56;;;;;;;2.45;0.90;;;4.10;99.90;;;;;;5052755;28;20067;-75
2021/12/02 10:44:24;;;;;;;4.30;1.00;;;4.10;99.90;;;;;;5053271;28;20036;-74
2021/12/02 10:47:01;;;;;;;5.78;1.13;;;4.10;99.90;;;;;;5052278;28;20033;-74
2021/12/02 10:49:30;;;;;;;3.17;1.00;;;4.10;99.90;;;;;;5051725;28;20361;-74
2021/12/02 10:52:00;;;;;;;4.20;1.10;;;4.10;99.90;;;;;;5052480;28;20045;-73
2021/12/02 10:54:30;;;;;;;4.15;1.02;;;4.10;99.90;;;;;;5051772;28;20147;-74
2021/12/02 10:56:58;;;;;;;;;;;4.10;99.90;;;;;;5051765;28;20361;-73
2021/12/02 10:59:46;;;;;;;4.25;1.10;;;4.10;99.90;;;;;;5051874;28;19916;-74
2021/12/02 11:02:22;;;;;;;2.17;0.95;;;4.10;99.90;;;;;;5055148;28;20045;-75
2021/12/02 11:04:54;;;;;;;3.53;1.02;;;4.20;99.90;;;;;;5056137;28;20055;-74
2021/12/02 11:07:28;;;;;;;2.08;1.00;;;4.20;99.90;;;;;;5056079;28;20048;-74
2021/12/02 11:09:56;;;;;;;2.80;0.98;;;4.20;99.90;;;;;;5039385;28;20048;-74
2021/12/02 11:12:26;;;;;;;5.03;1.05;;;4.20;99.90;;;;;;5055591;28;20182;-75
2021/12/02 11:15:01;;;;;;;2.42;0.98;;;4.30;99.90;;;;;;5055545;28;20041;-74
2021/12/02 11:17:32;;;;;;;2.83;1.15;;;4.30;99.90;;;;;;5055925;28;20044;-74
2021/12/02 11:20:00;;;;;;;8.77;1.52;;;4.30;99.90;;;;;;5055893;28;20090;-74
2021/12/02 11:22:28;;;;;;;2.38;0.88;;;4.40;99.90;;;;;;5055582;28;20571;-74
2021/12/02 11:24:54;;;;;;;0.40;0.30;;;4.40;99.90;;;;;;5055281;28;20471;-73
2021/12/02 11:27:24;;;;;;;0.47;0.20;;;4.20;99.90;;;;;;5014560;28;20149;-76
2021/12/02 11:29:51;;;;;;;2.50;0.30;;;3.90;99.90;;;;;;5014037;28;20145;-73
2021/12/02 11:32:33;;;;;;;2.05;0.30;;;3.70;99.90;;;;;;5014796;28;20050;-74
2021/12/02 11:35:24;;;;;;;1.00;0.43;;;3.50;99.90;;;;;;5014916;28;20081;-73
2021/12/02 11:37:53;;;;;;;1.73;0.30;;;3.40;99.90;;;;;;5014807;28;20552;-74
2021/12/02 11:40:25;;;;;;;1.05;0.40;;;3.30;99.90;;;;;;5014822;28;20049;-74
2021/12/02 11:42:51;;;;;;;2.50;0.30;;;3.30;99.90;;;;;;5014453;28;20065;-74
2021/12/02 11:45:20;;;;;;;4.75;0.50;;;3.40;99.90;;;;;;4981848;28;20042;-74
2021/12/02 11:47:47;;;;;;;3.55;1.83;;;3.40;99.90;;;;;;5014381;28;20049;-76
2021/12/02 11:50:14;;;;;;;4.78;3.00;;;3.50;99.90;;;;;;5014553;28;20034;-76
2021/12/02 11:52:41;;;;;;;3.15;1.80;;;3.40;99.90;;;;;;5013753;28;20046;-73
2021/12/02 11:55:19;;;;;;;4.00;2.17;;;3.40;99.90;;;;;;4998104;28;20046;-75
2021/12/02 11:57:47;;;;;;;5.47;2.45;;;3.40;99.90;;;;;;5027189;28;20060;-74
2021/12/02 12:00:16;;;;;;;6.05;1.60;;;3.40;99.90;;;;;;5071550;28;20044;-77
2021/12/02 12:02:58;;;;;;;3.42;0.90;;;3.40;99.90;;;;;;5055731;28;20043;-76
2021/12/02 12:05:31;;;;;;;3.15;0.80;;;3.30;99.90;;;;;;5071306;28;20037;-75
2021/12/02 12:07:57;;;;;;;3.50;0.50;;;3.30;99.90;;;;;;5054844;28;20045;-76
2021/12/02 12:10:39;;;;;;;1.73;0.55;;;3.30;99.90;;;;;;5054639;28;20489;-74
2021/12/02 12:13:23;;;;;;;4.85;1.90;;;3.30;99.90;;;;;;5053898;28;20045;-73
2021/12/02 12:15:50;;;;;;;4.45;1.52;;;3.30;99.90;;;;;;5038474;28;20045;-73
2021/12/02 12:18:34;;;;;;;2.78;1.75;;;3.30;99.90;;;;;;5038258;28;20049;-75
2021/12/02 12:21:02;;;;;;;4.07;2.00;;;3.30;99.90;;;;;;5053997;28;20041;-73
2021/12/02 12:23:56;;;;;;;2.55;0.90;;;3.40;99.90;;;;;;5053956;28;20049;-75
2021/12/02 12:26:27;;;;;;;3.70;2.50;;;3.40;99.90;;;;;;5054581;28;20455;-74
2021/12/02 12:29:08;;;;;;;3.17;1.02;;;3.40;99.90;;;;;;5054512;28;20047;-75
2021/12/02 12:32:08;;;;;;;4.50;1.63;;;3.30;99.90;;;;;;5053895;28;20106;-76
2021/12/02 12:37:22;;;;;;;5.10;2.45;;;3.30;99.90;;;;;;5054346;28;20053;-73
2021/12/02 12:40:28;;;;;;;4.28;2.67;;;3.30;99.90;;;;;;5054100;28;20522;-74
2021/12/02 12:43:02;;;;;;;6.30;3.30;;;3.30;99.90;;;;;;5016302;28;20396;-73
2021/12/02 12:45:37;;;;;;;4.50;2.00;;;3.30;99.90;;;;;;5016572;28;20475;-73
2021/12/02 12:48:04;;;;;;;1.40;1.08;;;3.30;99.90;;;;;;5037846;28;20190;-75
2021/12/02 12:50:40;;;;;;;2.03;1.27;;;3.40;99.90;;;;;;5053640;28;20041;-74
2021/12/02 12:53:12;;;;;;;1.95;0.60;;;3.50;99.90;;;;;;5054444;28;20041;-73
2021/12/02 12:55:41;;;;;;;2.08;0.60;;;3.50;99.90;;;;;;5054236;28;20041;-74
2021/12/02 12:58:20;;;;;;;1.52;0.73;;;3.50;99.90;;;;;;5053975;28;20048;-75
2021/12/02 13:00:53;;;;;;;1.87;1.07;;;3.50;99.90;;;;;;5053559;28;20487;-74
2021/12/02 13:03:26;;;;;;;1.65;0.60;;;3.40;99.90;;;;;;5054053;28;20291;-72
2021/12/02 13:06:07;;;;;;;3.50;0.50;;;3.40;99.90;;;;;;5053807;28;20049;-73
2021/12/02 13:08:47;;;;;;;1.00;0.40;;;3.30;99.90;;;;;;5053255;28;20498;-73
2021/12/02 13:11:19;;;;;;;1.38;0.60;;;3.30;99.90;;;;;;5053593;28;20076;-75
2021/12/02 13:13:47;;;;;;;3.15;1.67;;;3.40;99.90;;;;;;5037096;28;20044;-75
2021/12/02 13:16:20;;;;;;;2.83;0.68;;;3.40;99.90;;;;;;5053593;28;20045;-74
2021/12/02 13:18:51;;;;;;;1.63;0.70;;;3.40;99.90;;;;;;5036691;28;20044;-74
2021/12/02 13:24:07;;;;;;;1.80;1.00;;;3.40;99.90;;;;;;5052358;28;20049;-73
2021/12/02 13:26:42;;;;;;;3.33;1.75;;;3.50;99.90;;;;;;5053544;28;20190;-74
2021/12/02 13:29:23;;;;;;;3.88;2.80;;;3.50;99.90;;;;;;5053433;28;20075;-73
2021/12/02 13:31:50;;;;;;;3.28;2.42;;;3.40;99.90;;;;;;5052319;28;20060;-75
2021/12/02 13:34:19;;;;;;;1.70;1.60;;;3.40;99.90;;;;;;5052642;28;20093;-73
2021/12/02 13:37:04;;;;;;;1.67;1.13;;;3.30;99.90;;;;;;5053475;28;20076;-74
2021/12/02 13:39:33;;;;;;;1.30;1.00;;;3.20;99.90;;;;;;5036289;28;20088;-74
2021/12/02 13:42:06;;;;;;;2.13;0.80;;;3.10;99.90;;;;;;5053241;28;20052;-74
2021/12/02 13:44:49;;;;;;;0.75;0.50;;;3.10;99.90;;;;;;5052940;28;20048;-72